메인 페이지
METAR-TAF:

METAR-TAF

공항 :

상하이 훙차오 국제공항

상해, 중국

위도: 31-10N, 경도: 121-26E, 고도: 7m

현재 날씨관측

예보는 28분 전, 19:00시(UTC)에 발표되었습니다.
북북동10kt
온도 9°C
습도 71%
기압 1026 hPa
시정 10km 이상
1500m 미만 상공 구름 및 적란운 없음

METAR: ZSSS 041900Z 03005MPS CAVOK 09/04 Q1026 NOSIG

시각: 03:28 (19:28 UTC)

예보

예보는 4 시간 20분 전, 15:08시(UTC)에 발표되었습니다.
예보 대상 시간: 04일 18시부터 05일 18시까지 (UTC)
북동10kt
시정: 6000m
고도 2000ft 상공 구름 많음

TAF: ZSSS 041508Z 0418/0518 04005MPS 6000 BKN020 TX16/0506Z TN09/0421Z

4,000개 이상의 공항 관측 자료 및 예보 (METAR 및 TAF 보고).

지도상에서 검색 가능한 기상관측소가 노란 점과 빨간 점으로 표시되어 있습니다.

기상관측소 명을 보려면 표시 위로 마우스를 이동하세요.

날씨 관측과 예보를 보려면 클릭하세요.

지도 변경 : 확대하려면 엑스 표시가 있는 녹색 버튼, 축소하려면 빼기 표시가 있는 녹색 버튼, 다음 페이지의 지도를 보려면 녹색 화살표를 클릭하세요.


METAR-TAF: